< < Back
Terminal Aerodrome Forecast


Current Version              Previous Versions:   1  2  3  4  5  6  7  8  9  

Terminal Aerodrome Forecast

076
FTUS42 KTAE 270500
TAFABY
TAF
KABY 270527Z 2706/2806 34008KT P6SM SCT020 BKN025 BKN250
     FM271300 02006KT P6SM BKN250=

Latest METAR

873
SAUS70 KWBC 280000 RRD
MTRABY
METAR KABY 272353Z 01003KT 10SM CLR 11/02 A3034 RMK AO2 SLP276 T01110017
10144 20111 53010


USA.gov is the U.S. government's official web portal to all federal, state and local government web resources and services.